createdAt,value
2023-05-06T00:03:09.939Z,3.60
2023-05-06T00:06:03.199Z,3.90
2023-05-06T00:08:55.177Z,3.80
2023-05-06T00:11:47.564Z,3.80
2023-05-06T00:14:39.580Z,4.10
2023-05-06T00:17:31.660Z,3.90
2023-05-06T00:20:23.732Z,3.20
2023-05-06T00:23:15.727Z,3.90
2023-05-06T00:26:08.390Z,3.80
2023-05-06T00:29:00.387Z,3.80
2023-05-06T00:31:52.508Z,4.10
2023-05-06T00:34:44.582Z,4.00
2023-05-06T00:37:36.557Z,3.90
2023-05-06T00:40:28.691Z,3.60
2023-05-06T00:43:20.713Z,3.90
2023-05-06T00:46:16.705Z,3.20
2023-05-06T00:49:08.917Z,4.20
2023-05-06T00:52:01.662Z,3.70
2023-05-06T00:54:53.849Z,4.10
2023-05-06T00:57:46.603Z,4.00
2023-05-06T01:00:38.608Z,3.50
2023-05-06T01:03:31.348Z,4.20
2023-05-06T01:06:31.961Z,3.70
2023-05-06T01:09:48.420Z,3.70
2023-05-06T01:12:30.509Z,3.60
2023-05-06T01:15:27.665Z,3.90
2023-05-06T01:18:22.477Z,4.10
2023-05-06T01:21:15.072Z,3.80
2023-05-06T01:24:07.862Z,3.50
2023-05-06T01:26:49.677Z,3.60
2023-05-06T01:29:43.790Z,4.00
2023-05-06T01:32:50.709Z,4.40
2023-05-06T01:35:51.412Z,4.50
2023-05-06T01:38:53.956Z,4.30
2023-05-06T01:41:49.007Z,3.80
2023-05-06T01:44:41.901Z,4.10
2023-05-06T01:47:34.561Z,4.40
2023-05-06T01:50:26.701Z,4.20
2023-05-06T01:53:18.835Z,4.10
2023-05-06T01:56:10.871Z,4.30
2023-05-06T01:59:02.824Z,3.90
2023-05-06T02:01:54.961Z,4.50
2023-05-06T02:04:47.940Z,4.20
2023-05-06T02:07:40.202Z,3.90
2023-05-06T02:10:32.145Z,4.00
2023-05-06T02:13:24.188Z,4.00
2023-05-06T02:15:56.504Z,3.60
2023-05-06T02:18:48.691Z,3.90
2023-05-06T02:21:43.055Z,3.50
2023-05-06T02:27:25.506Z,4.10
2023-05-06T02:30:17.589Z,4.10
2023-05-06T02:33:09.570Z,3.90
2023-05-06T02:36:01.630Z,3.70
2023-05-06T02:38:54.162Z,3.80
2023-05-06T02:41:46.378Z,3.80
2023-05-06T02:44:38.348Z,3.40
2023-05-06T02:47:30.465Z,4.00
2023-05-06T02:50:22.444Z,3.80
2023-05-06T02:53:14.560Z,3.80
2023-05-06T02:56:07.732Z,3.00
2023-05-06T02:58:59.753Z,4.40
2023-05-06T03:01:51.739Z,4.30
2023-05-06T03:04:43.902Z,3.70
2023-05-06T03:07:35.902Z,3.80
2023-05-06T03:10:27.988Z,4.70
2023-05-06T03:13:20.092Z,4.70
2023-05-06T03:16:15.689Z,3.50
2023-05-06T03:19:07.783Z,4.20
2023-05-06T03:21:59.758Z,4.50
2023-05-06T03:24:51.775Z,4.80
2023-05-06T03:27:43.847Z,4.00
2023-05-06T03:30:36.157Z,3.70
2023-05-06T03:33:29.140Z,4.20
2023-05-06T03:36:23.937Z,4.40
2023-05-06T03:39:15.904Z,3.90
2023-05-06T03:42:09.624Z,3.80
2023-05-06T03:45:01.925Z,4.50
2023-05-06T03:47:53.939Z,3.90
2023-05-06T03:50:46.011Z,3.90
2023-05-06T03:53:38.121Z,4.40
2023-05-06T03:56:30.434Z,3.90
2023-05-06T03:59:22.422Z,3.60
2023-05-06T04:02:15.478Z,3.80
2023-05-06T04:05:08.917Z,3.50
2023-05-06T04:08:01.096Z,4.30
2023-05-06T04:10:43.124Z,4.50
2023-05-06T04:13:35.358Z,4.70
2023-05-06T04:16:27.592Z,4.80
2023-05-06T04:19:19.580Z,4.30
2023-05-06T04:22:11.570Z,3.80
2023-05-06T04:25:03.669Z,3.40
2023-05-06T04:27:55.776Z,3.40
2023-05-06T04:30:48.310Z,4.40
2023-05-06T04:33:40.604Z,3.90
2023-05-06T04:36:32.584Z,3.20
2023-05-06T04:39:24.624Z,3.40
2023-05-06T04:42:17.079Z,3.80
2023-05-06T04:45:11.662Z,3.50
2023-05-06T04:48:03.781Z,3.60
2023-05-06T04:50:55.978Z,3.60
2023-05-06T04:53:48.034Z,3.90
2023-05-06T04:56:40.000Z,3.80
2023-05-06T04:59:32.059Z,3.60
2023-05-06T05:02:24.189Z,3.70
2023-05-06T05:05:16.734Z,3.80
2023-05-06T05:08:10.177Z,3.40
2023-05-06T05:11:02.106Z,3.60
2023-05-06T05:13:56.525Z,3.60
2023-05-06T05:16:49.181Z,3.60
2023-05-06T05:19:41.171Z,3.50
2023-05-06T05:22:33.344Z,3.90
2023-05-06T05:25:25.852Z,4.10
2023-05-06T05:28:17.855Z,3.80
2023-05-06T05:31:10.605Z,4.40
2023-05-06T05:34:02.789Z,3.90
2023-05-06T05:36:54.763Z,3.70
2023-05-06T05:39:46.816Z,3.50
2023-05-06T05:42:38.827Z,3.70
2023-05-06T05:45:30.851Z,4.10
2023-05-06T05:48:22.965Z,4.40
2023-05-06T05:51:15.099Z,4.10
2023-05-06T05:54:07.340Z,4.00
2023-05-06T05:56:59.414Z,4.20
2023-05-06T05:59:51.428Z,4.30
2023-05-06T06:02:43.502Z,4.00
2023-05-06T06:05:35.691Z,4.00
2023-05-06T06:08:27.881Z,4.00
2023-05-06T06:11:19.953Z,3.70
2023-05-06T06:14:12.290Z,4.40
2023-05-06T06:17:04.872Z,3.90
2023-05-06T06:19:57.253Z,4.80
2023-05-06T06:22:49.363Z,5.10
2023-05-06T06:25:41.298Z,4.40
2023-05-06T06:28:33.244Z,5.10
2023-05-06T06:31:25.318Z,4.70
2023-05-06T06:34:17.489Z,5.60
2023-05-06T06:37:10.474Z,4.80
2023-05-06T06:40:02.469Z,4.40
2023-05-06T06:42:54.554Z,5.30
2023-05-06T06:45:49.424Z,6.40
2023-05-06T06:48:41.452Z,5.00
2023-05-06T06:51:33.564Z,4.10
2023-05-06T06:54:25.762Z,5.70
2023-05-06T06:57:17.812Z,6.30
2023-05-06T07:00:11.843Z,5.70
2023-05-06T07:03:03.861Z,5.40
2023-05-06T07:05:55.960Z,4.90
2023-05-06T07:08:48.045Z,4.10
2023-05-06T07:11:40.025Z,5.00
2023-05-06T07:14:32.111Z,5.30
2023-05-06T07:17:24.202Z,4.20
2023-05-06T07:20:17.046Z,4.40
2023-05-06T07:23:09.238Z,4.10
2023-05-06T07:26:01.938Z,4.50
2023-05-06T07:28:54.003Z,5.70
2023-05-06T07:31:45.962Z,4.40
2023-05-06T07:34:38.070Z,4.50
2023-05-06T07:37:30.043Z,4.50
2023-05-06T07:40:22.116Z,3.60
2023-05-06T07:43:10.674Z,4.30
2023-05-06T07:46:03.538Z,4.80
2023-05-06T07:48:55.564Z,3.90
2023-05-06T07:51:47.545Z,4.40
2023-05-06T07:54:39.368Z,4.50
2023-05-06T07:57:31.342Z,4.10
2023-05-06T08:00:24.040Z,4.40
2023-05-06T08:03:17.028Z,4.40
2023-05-06T08:05:52.504Z,4.60
2023-05-06T08:08:46.479Z,4.30
2023-05-06T08:11:38.933Z,4.80
2023-05-06T08:14:30.970Z,4.50
2023-05-06T08:17:23.093Z,4.40
2023-05-06T08:20:07.058Z,4.10
2023-05-06T08:23:00.959Z,4.20
2023-05-06T08:25:52.983Z,4.60
2023-05-06T08:28:45.003Z,5.10
2023-05-06T08:31:37.161Z,4.30
2023-05-06T08:34:29.199Z,4.00
2023-05-06T08:37:21.183Z,4.70
2023-05-06T08:40:20.362Z,4.30
2023-05-06T08:43:15.383Z,3.90
2023-05-06T08:46:08.029Z,4.20
2023-05-06T08:49:00.304Z,3.70
2023-05-06T08:51:53.785Z,4.10
2023-05-06T08:54:46.690Z,4.20
2023-05-06T08:57:39.685Z,4.40
2023-05-06T09:00:31.780Z,3.50
2023-05-06T09:03:23.911Z,4.50
2023-05-06T09:06:16.007Z,4.70
2023-05-06T09:09:08.072Z,4.40
2023-05-06T09:12:02.230Z,4.50
2023-05-06T09:17:44.693Z,5.40
2023-05-06T09:20:41.416Z,4.70
2023-05-06T09:23:34.268Z,4.30
2023-05-06T09:26:27.625Z,4.90
2023-05-06T09:29:19.589Z,4.60
2023-05-06T09:32:15.910Z,4.80
2023-05-06T09:35:09.730Z,4.80
2023-05-06T09:38:01.905Z,4.60
2023-05-06T09:40:54.326Z,4.80
2023-05-06T09:43:48.984Z,4.90
2023-05-06T09:46:41.827Z,5.20
2023-05-06T09:49:34.385Z,5.30
2023-05-06T09:52:27.099Z,5.00
2023-05-06T09:55:21.754Z,4.90
2023-05-06T09:58:14.312Z,5.20
2023-05-06T10:01:08.390Z,5.70
2023-05-06T10:04:03.518Z,5.40
2023-05-06T10:07:00.437Z,7.00
2023-05-06T10:09:53.196Z,6.80
2023-05-06T10:12:46.896Z,7.20
2023-05-06T10:15:40.876Z,7.70
2023-05-06T10:18:33.419Z,8.20
2023-05-06T10:21:28.938Z,8.40
2023-05-06T10:24:24.453Z,8.90
2023-05-06T10:27:19.581Z,7.80
2023-05-06T10:30:15.554Z,7.20
2023-05-06T10:33:09.228Z,7.10
2023-05-06T10:36:16.622Z,6.20
2023-05-06T10:39:14.105Z,6.40
2023-05-06T10:42:06.952Z,7.10
2023-05-06T10:45:03.788Z,7.00
2023-05-06T10:48:11.528Z,11.90
2023-05-06T10:51:28.697Z,7.60
2023-05-06T10:54:26.789Z,8.10
2023-05-06T10:57:20.769Z,7.90
2023-05-06T11:00:15.320Z,8.10
2023-05-06T11:03:18.686Z,9.20
2023-05-06T11:06:11.064Z,9.20
2023-05-06T11:09:04.153Z,9.80
2023-05-06T11:12:02.890Z,8.70
2023-05-06T11:14:54.940Z,8.30
2023-05-06T11:17:47.059Z,7.90
2023-05-06T11:20:39.195Z,11.30
2023-05-06T11:24:11.009Z,10.70
2023-05-06T11:27:03.026Z,8.30
2023-05-06T11:29:55.623Z,9.30
2023-05-06T11:32:48.737Z,11.00
2023-05-06T11:35:40.828Z,11.10
2023-05-06T11:38:44.565Z,8.90
2023-05-06T11:41:39.544Z,8.40
2023-05-06T11:44:33.522Z,7.90
2023-05-06T11:47:26.176Z,7.60
2023-05-06T11:50:22.748Z,8.60
2023-05-06T11:53:16.426Z,8.20
2023-05-06T11:56:10.088Z,9.20
2023-05-06T11:59:02.112Z,8.50
2023-05-06T12:01:54.363Z,10.10
2023-05-06T12:04:48.155Z,9.50
2023-05-06T12:07:43.221Z,8.60
2023-05-06T12:10:35.417Z,8.60
2023-05-06T12:13:27.734Z,9.10
2023-05-06T12:16:19.727Z,9.60
2023-05-06T12:19:11.785Z,10.70
2023-05-06T12:22:19.102Z,10.40
2023-05-06T12:25:18.853Z,11.10
2023-05-06T12:28:23.746Z,9.90
2023-05-06T12:31:22.750Z,10.30
2023-05-06T12:34:16.057Z,9.20
2023-05-06T12:37:08.696Z,8.50
2023-05-06T12:40:01.240Z,9.00
2023-05-06T12:42:57.786Z,8.30
2023-05-06T12:46:10.744Z,8.00
2023-05-06T12:49:04.377Z,9.20
2023-05-06T12:52:10.984Z,8.40
2023-05-06T12:55:03.250Z,7.60
2023-05-06T12:57:57.167Z,8.30
2023-05-06T13:00:49.846Z,9.30
2023-05-06T13:03:41.993Z,9.70
2023-05-06T13:06:34.192Z,8.30
2023-05-06T13:09:26.892Z,8.50
2023-05-06T13:12:18.919Z,8.50
2023-05-06T13:15:12.662Z,9.30
2023-05-06T13:18:05.178Z,10.00
2023-05-06T13:20:57.310Z,10.60
2023-05-06T13:23:49.345Z,11.40
2023-05-06T13:27:02.173Z,12.20
2023-05-06T13:29:54.395Z,13.40
2023-05-06T13:32:46.494Z,13.50
2023-05-06T13:35:38.583Z,12.90
2023-05-06T13:38:31.214Z,13.30
2023-05-06T13:41:24.976Z,12.90
2023-05-06T13:44:16.976Z,13.30
2023-05-06T13:47:09.312Z,12.40
2023-05-06T13:50:03.726Z,14.40
2023-05-06T13:52:55.796Z,12.90
2023-05-06T13:55:47.897Z,13.50
2023-05-06T13:58:40.093Z,12.30
2023-05-06T14:01:32.375Z,12.10
2023-05-06T14:04:24.594Z,12.40
2023-05-06T14:07:16.750Z,12.60
2023-05-06T14:10:10.431Z,12.10
2023-05-06T14:13:04.596Z,11.30
2023-05-06T14:15:59.383Z,11.40
2023-05-06T14:18:51.573Z,13.60
2023-05-06T14:21:43.524Z,13.70
2023-05-06T14:24:35.540Z,16.90
2023-05-06T14:27:27.733Z,16.20
2023-05-06T14:30:20.368Z,18.40
2023-05-06T14:33:12.798Z,20.20
2023-05-06T14:36:05.155Z,18.10
2023-05-06T14:38:57.139Z,15.90
2023-05-06T14:41:49.135Z,15.00
2023-05-06T14:44:42.988Z,14.50
2023-05-06T14:47:35.265Z,16.00
2023-05-06T14:50:27.397Z,17.50
2023-05-06T14:53:19.385Z,17.10
2023-05-06T14:56:12.299Z,18.50
2023-05-06T14:59:04.424Z,17.00
2023-05-06T15:01:58.791Z,17.20
2023-05-06T15:04:51.710Z,17.20
2023-05-06T15:07:44.299Z,17.30
2023-05-06T15:10:36.300Z,17.70
2023-05-06T15:13:28.364Z,18.60
2023-05-06T15:16:20.301Z,18.60
2023-05-06T15:18:55.229Z,17.70
2023-05-06T15:21:38.657Z,17.40
2023-05-06T15:24:17.160Z,14.60
2023-05-06T15:27:09.716Z,13.50
2023-05-06T15:30:04.190Z,14.40
2023-05-06T15:32:56.323Z,12.80
2023-05-06T15:35:48.373Z,13.00
2023-05-06T15:39:00.513Z,12.10
2023-05-06T15:41:53.759Z,9.50
2023-05-06T15:44:45.910Z,11.50
2023-05-06T15:47:38.174Z,12.70
2023-05-06T15:50:33.791Z,12.00
2023-05-06T15:53:26.160Z,11.90
2023-05-06T15:56:19.154Z,12.20
2023-05-06T15:59:12.250Z,13.70
2023-05-06T16:04:59.845Z,12.80
2023-05-06T16:07:51.970Z,13.50
2023-05-06T16:10:44.347Z,15.60
2023-05-06T16:13:25.511Z,15.20
2023-05-06T16:16:17.675Z,14.30
2023-05-06T16:19:10.226Z,13.70
2023-05-06T16:22:02.328Z,12.50
2023-05-06T16:24:54.584Z,14.30
2023-05-06T16:27:46.640Z,12.90
2023-05-06T16:30:40.461Z,14.30
2023-05-06T16:33:32.429Z,15.10
2023-05-06T16:36:24.990Z,15.50
2023-05-06T16:39:17.137Z,15.20
2023-05-06T16:42:09.079Z,13.80
2023-05-06T16:45:01.116Z,14.60
2023-05-06T16:47:53.170Z,14.10
2023-05-06T16:50:45.454Z,15.60
2023-05-06T16:53:37.528Z,13.90
2023-05-06T16:56:43.887Z,13.00
2023-05-06T16:59:41.315Z,12.90
2023-05-06T17:02:23.265Z,13.00
2023-05-06T17:05:15.306Z,14.10
2023-05-06T17:08:08.309Z,14.50
2023-05-06T17:11:01.413Z,15.00
2023-05-06T17:13:54.516Z,14.80
2023-05-06T17:16:46.590Z,14.80
2023-05-06T17:19:31.869Z,13.60
2023-05-06T17:22:26.195Z,13.20
2023-05-06T17:25:18.812Z,13.30
2023-05-06T17:28:11.099Z,15.10
2023-05-06T17:31:03.148Z,16.10
2023-05-06T17:33:55.280Z,14.20
2023-05-06T17:36:47.298Z,14.10
2023-05-06T17:39:39.430Z,14.00
2023-05-06T17:42:31.529Z,15.20
2023-05-06T17:45:25.233Z,16.50
2023-05-06T17:48:17.244Z,15.50
2023-05-06T17:51:09.341Z,16.60
2023-05-06T17:54:01.435Z,15.20
2023-05-06T17:56:53.417Z,15.50
2023-05-06T17:59:45.478Z,13.60
2023-05-06T18:02:39.173Z,14.70
2023-05-06T18:05:31.642Z,15.90
2023-05-06T18:08:23.733Z,15.70
2023-05-06T18:11:16.220Z,16.40
2023-05-06T18:14:08.796Z,15.60
2023-05-06T18:17:01.432Z,17.00
2023-05-06T18:19:53.619Z,17.50
2023-05-06T18:22:46.371Z,17.10
2023-05-06T18:25:38.608Z,18.20
2023-05-06T18:28:30.571Z,18.40
2023-05-06T18:31:22.654Z,15.70
2023-05-06T18:34:16.275Z,15.30
2023-05-06T18:37:08.322Z,14.60
2023-05-06T18:40:00.391Z,15.10
2023-05-06T18:42:53.152Z,15.10
2023-05-06T18:45:45.604Z,16.10
2023-05-06T18:48:37.638Z,14.50
2023-05-06T18:51:29.661Z,16.10
2023-05-06T18:54:21.786Z,17.90
2023-05-06T18:57:13.837Z,18.70
2023-05-06T19:00:07.192Z,17.80
2023-05-06T19:02:59.443Z,17.90
2023-05-06T19:05:52.431Z,15.50
2023-05-06T19:08:44.796Z,14.90
2023-05-06T19:11:36.797Z,12.60
2023-05-06T19:14:28.992Z,13.50
2023-05-06T19:17:11.470Z,13.00
2023-05-06T19:20:04.158Z,14.30
2023-05-06T19:22:56.788Z,14.30
2023-05-06T19:25:48.994Z,14.10
2023-05-06T19:28:41.901Z,14.50
2023-05-06T19:31:34.869Z,15.40
2023-05-06T19:34:27.159Z,14.70
2023-05-06T19:37:19.149Z,13.60
2023-05-06T19:40:12.731Z,14.30
2023-05-06T19:43:05.192Z,13.30
2023-05-06T19:45:57.193Z,13.00
2023-05-06T19:48:49.509Z,15.20
2023-05-06T19:51:41.537Z,14.80
2023-05-06T19:54:33.604Z,15.00
2023-05-06T19:57:27.029Z,13.40
2023-05-06T20:00:21.905Z,15.70
2023-05-06T20:03:14.186Z,16.10
2023-05-06T20:06:07.431Z,15.60
2023-05-06T20:08:59.558Z,16.20
2023-05-06T20:11:51.662Z,15.70
2023-05-06T20:14:43.709Z,15.80
2023-05-06T20:17:35.835Z,15.10
2023-05-06T20:20:34.281Z,14.70
2023-05-06T20:23:26.825Z,14.60
2023-05-06T20:26:18.944Z,14.00
2023-05-06T20:29:11.203Z,14.60
2023-05-06T20:31:51.956Z,15.40
2023-05-06T20:34:44.056Z,14.40
2023-05-06T20:37:36.660Z,14.00
2023-05-06T20:40:19.173Z,13.80
2023-05-06T20:43:11.257Z,12.50
2023-05-06T20:45:54.512Z,11.40
2023-05-06T20:48:46.841Z,10.90
2023-05-06T20:51:39.015Z,13.50
2023-05-06T20:54:31.104Z,21.10
2023-05-06T20:57:24.014Z,19.10
2023-05-06T20:59:56.149Z,13.80
2023-05-06T21:02:48.431Z,15.40
2023-05-06T21:05:41.154Z,15.00
2023-05-06T21:08:33.450Z,13.30
2023-05-06T21:11:25.567Z,12.50
2023-05-06T21:14:17.790Z,12.10
2023-05-06T21:17:09.869Z,13.30
2023-05-06T21:20:04.056Z,15.20
2023-05-06T21:22:57.200Z,13.00
2023-05-06T21:25:49.231Z,12.70
2023-05-06T21:28:41.484Z,13.10
2023-05-06T21:31:33.813Z,13.70
2023-05-06T21:34:26.938Z,13.00
2023-05-06T21:37:19.161Z,12.00
2023-05-06T21:40:13.524Z,12.70
2023-05-06T21:43:05.916Z,10.70
2023-05-06T21:45:57.981Z,9.60
2023-05-06T21:48:50.164Z,8.50
2023-05-06T21:51:42.358Z,7.80
2023-05-06T21:54:34.575Z,6.50
2023-05-06T21:57:26.709Z,6.80
2023-05-06T22:00:19.742Z,6.50
2023-05-06T22:03:11.902Z,6.30
2023-05-06T22:05:46.860Z,6.40
2023-05-06T22:08:38.916Z,8.00
2023-05-06T22:11:30.995Z,9.10
2023-05-06T22:14:26.955Z,10.80
2023-05-06T22:17:23.135Z,13.80
2023-05-06T22:20:17.542Z,18.00
2023-05-06T22:26:00.493Z,9.30
2023-05-06T22:28:52.567Z,11.40
2023-05-06T22:31:44.688Z,18.20
2023-05-06T22:34:36.699Z,14.30
2023-05-06T22:37:28.744Z,20.10
2023-05-06T22:40:20.861Z,45.80
2023-05-06T22:43:12.850Z,25.60
2023-05-06T22:46:05.203Z,23.60
2023-05-06T22:48:57.918Z,11.60
2023-05-06T22:51:50.049Z,7.80
2023-05-06T22:54:41.992Z,7.40
2023-05-06T22:57:18.987Z,7.30
2023-05-06T23:00:13.779Z,6.80
2023-05-06T23:03:06.239Z,8.60
2023-05-06T23:05:41.074Z,8.00
2023-05-06T23:08:33.005Z,13.00
2023-05-06T23:11:25.082Z,13.90
2023-05-06T23:14:17.967Z,11.50
2023-05-06T23:17:09.991Z,20.40
2023-05-06T23:20:02.085Z,10.50
2023-05-06T23:22:54.057Z,11.30
2023-05-06T23:25:46.012Z,11.80
2023-05-06T23:28:37.939Z,12.80
2023-05-06T23:31:29.939Z,13.20
2023-05-06T23:34:21.881Z,26.70
2023-05-06T23:37:13.847Z,12.00
2023-05-06T23:40:07.206Z,21.70
2023-05-06T23:42:59.194Z,11.80
2023-05-06T23:45:51.267Z,12.50
2023-05-06T23:48:43.333Z,21.00
2023-05-06T23:51:35.296Z,13.80
2023-05-06T23:54:27.360Z,12.10
2023-05-06T23:57:19.348Z,23.70
